Time;durP1;ratioP1;P1;durP2;ratioP2;P2;SDS_P1;SDS_P2;PMS_P1;PMS_P2;Temp;Humidity;BMP_temperature;BMP_pressure;BME280_temperature;BME280_humidity;BME280_pressure;Samples;Min_cycle;Max_cycle;Signal;HPM_P1;HPM_P2
2023/05/28 00:00:10;;;;;;;7.80;4.32;;;24.60;70.90;;;;;;6214690;23;20008;-77
2023/05/28 00:02:37;;;;;;;6.55;4.35;;;24.60;70.70;;;;;;6214100;23;20004;-77
2023/05/28 00:05:03;;;;;;;6.28;4.68;;;24.60;70.70;;;;;;6203878;23;20164;-77
2023/05/28 00:07:30;;;;;;;6.28;4.50;;;24.60;70.60;;;;;;6214378;23;20546;-77
2023/05/28 00:09:56;;;;;;;5.95;4.25;;;24.60;70.80;;;;;;6214397;23;20004;-77
2023/05/28 00:12:22;;;;;;;7.32;4.40;;;24.60;70.90;;;;;;6215643;23;20004;-77
2023/05/28 00:14:48;;;;;;;5.32;4.32;;;24.50;70.90;;;;;;6215148;23;20007;-77
2023/05/28 00:17:18;;;;;;;5.38;4.43;;;24.50;70.80;;;;;;6215444;23;20000;-77
2023/05/28 00:19:44;;;;;;;7.82;4.72;;;24.50;71.20;;;;;;6214951;23;20032;-77
2023/05/28 00:22:10;;;;;;;6.32;4.78;;;24.40;72.10;;;;;;6215132;23;20008;-77
2023/05/28 00:24:36;;;;;;;6.53;4.47;;;24.40;71.90;;;;;;6214811;23;19996;-77
2023/05/28 00:27:02;;;;;;;6.43;4.43;;;24.30;72.00;;;;;;6215687;23;20023;-77
2023/05/28 00:29:29;;;;;;;6.85;4.35;;;24.30;72.20;;;;;;6213835;23;20035;-77
2023/05/28 00:31:57;;;;;;;6.95;4.60;;;24.30;72.50;;;;;;6215709;23;20387;-77
2023/05/28 00:34:24;;;;;;;6.78;4.13;;;24.30;72.20;;;;;;6214251;23;20357;-77
2023/05/28 00:36:50;;;;;;;6.95;4.43;;;24.30;72.30;;;;;;6214902;23;20005;-77
2023/05/28 00:39:16;;;;;;;5.65;4.32;;;24.20;72.00;;;;;;6214704;23;20007;-77
2023/05/28 00:41:42;;;;;;;5.65;4.40;;;24.20;71.80;;;;;;6214604;23;20076;-77
2023/05/28 00:44:10;;;;;;;9.88;4.68;;;24.20;71.60;;;;;;6214332;23;20036;-77
2023/05/28 00:46:37;;;;;;;8.77;4.47;;;24.20;71.20;;;;;;6213081;23;20008;-77
2023/05/28 00:49:03;;;;;;;5.97;3.97;;;24.20;70.70;;;;;;6214973;23;20004;-77
2023/05/28 00:51:31;;;;;;;6.00;4.05;;;24.10;70.30;;;;;;6214148;23;20004;-77
2023/05/28 00:53:57;;;;;;;6.20;4.75;;;24.10;69.90;;;;;;6215017;23;20446;-77
2023/05/28 00:56:24;;;;;;;5.80;4.10;;;24.00;69.20;;;;;;6214331;23;20335;-77
2023/05/28 00:58:51;;;;;;;4.80;3.85;;;24.00;69.30;;;;;;6214321;23;20000;-77
2023/05/28 01:01:17;;;;;;;6.22;4.05;;;24.00;69.30;;;;;;6214129;23;20024;-77
2023/05/28 01:03:43;;;;;;;7.57;4.47;;;24.00;69.10;;;;;;6213771;23;20079;-77
2023/05/28 01:06:14;;;;;;;7.75;4.65;;;24.00;69.00;;;;;;6213303;23;20009;-77
2023/05/28 01:08:40;;;;;;;;;;;24.00;68.80;;;;;;6214783;23;20028;-77
2023/05/28 01:11:10;;;;;;;7.30;4.00;;;24.00;68.80;;;;;;6214001;23;19900;-77
2023/05/28 01:13:36;;;;;;;8.23;4.10;;;23.90;68.80;;;;;;6214821;23;20015;-77
2023/05/28 01:16:02;;;;;;;8.35;4.25;;;23.90;69.00;;;;;;6214566;23;20011;-77
2023/05/28 01:18:29;;;;;;;6.40;4.35;;;23.90;68.90;;;;;;6215089;23;20032;-77
2023/05/28 01:20:55;;;;;;;6.47;4.30;;;23.90;68.80;;;;;;6214251;23;20008;-77
2023/05/28 01:23:23;;;;;;;7.38;4.43;;;23.90;68.60;;;;;;6214835;23;20308;-77
2023/05/28 01:25:52;;;;;;;6.38;4.07;;;23.80;68.10;;;;;;6214374;23;20292;-77
2023/05/28 01:28:19;;;;;;;8.18;4.72;;;23.80;68.00;;;;;;6188753;23;20078;-77
2023/05/28 01:30:45;;;;;;;8.35;4.10;;;23.80;67.80;;;;;;6214507;23;20076;-77
2023/05/28 01:33:12;;;;;;;5.55;3.67;;;23.80;67.30;;;;;;6213572;23;20091;-77
2023/05/28 01:35:41;;;;;;;5.57;3.67;;;23.80;67.10;;;;;;6214560;23;20007;-77
2023/05/28 01:38:08;;;;;;;6.95;4.18;;;23.70;67.10;;;;;;6214720;23;20371;-77
2023/05/28 01:40:36;;;;;;;5.13;4.22;;;23.80;66.90;;;;;;6213523;23;20062;-77
2023/05/28 01:43:03;;;;;;;6.22;3.90;;;23.70;66.90;;;;;;6214824;23;20011;-77
2023/05/28 01:45:30;;;;;;;6.20;4.65;;;23.70;66.90;;;;;;6214602;23;20008;-77
2023/05/28 01:47:56;;;;;;;8.48;4.70;;;23.70;66.70;;;;;;6214996;23;20070;-76
2023/05/28 01:50:22;;;;;;;5.57;4.53;;;23.60;66.70;;;;;;6213583;23;20336;-75
2023/05/28 01:52:48;;;;;;;5.10;3.88;;;23.60;66.60;;;;;;6213842;23;20004;-76
2023/05/28 01:55:14;;;;;;;7.70;4.78;;;23.60;66.40;;;;;;6212782;23;20455;-76
2023/05/28 01:57:40;;;;;;;7.00;4.70;;;23.60;66.30;;;;;;6214014;23;20001;-77
2023/05/28 02:00:07;;;;;;;5.63;4.20;;;23.60;66.30;;;;;;6213762;23;20015;-76
2023/05/28 02:02:34;;;;;;;5.72;3.90;;;23.60;66.30;;;;;;6213699;23;20084;-77
2023/05/28 02:05:00;;;;;;;5.28;4.22;;;23.60;66.30;;;;;;6213049;23;20036;-76
2023/05/28 02:07:26;;;;;;;4.68;4.05;;;23.60;66.40;;;;;;6214938;23;19997;-76
2023/05/28 02:09:52;;;;;;;5.18;4.35;;;23.60;66.40;;;;;;6214510;23;20005;-76
2023/05/28 02:12:17;;;;;;;6.65;4.68;;;23.60;65.80;;;;;;6214565;23;20001;-76
2023/05/28 02:14:44;;;;;;;8.10;4.32;;;23.60;66.00;;;;;;6213152;23;19997;-76
2023/05/28 02:17:10;;;;;;;6.45;4.25;;;23.60;65.90;;;;;;6215144;23;20008;-76
2023/05/28 02:19:36;;;;;;;5.55;4.22;;;23.60;65.90;;;;;;6215863;23;20043;-76
2023/05/28 02:22:11;;;;;;;5.90;4.22;;;23.60;65.60;;;;;;6215295;23;20001;-76
2023/05/28 02:24:37;;;;;;;8.40;4.30;;;23.60;65.40;;;;;;6215805;23;20012;-76
2023/05/28 02:27:04;;;;;;;11.43;4.60;;;23.60;65.50;;;;;;6215964;23;20003;-76
2023/05/28 02:29:30;;;;;;;8.77;5.25;;;23.50;65.60;;;;;;6216257;23;19997;-76
2023/05/28 02:31:56;;;;;;;5.90;4.13;;;23.50;65.60;;;;;;6215944;23;20118;-76
2023/05/28 02:34:21;;;;;;;8.20;4.88;;;23.50;65.50;;;;;;6215735;23;20008;-76
2023/05/28 02:36:47;;;;;;;5.47;4.03;;;23.50;65.30;;;;;;6215834;23;20005;-76
2023/05/28 02:39:14;;;;;;;6.03;4.32;;;23.50;65.50;;;;;;6216655;23;20028;-76
2023/05/28 02:41:40;;;;;;;8.20;4.90;;;23.50;65.60;;;;;;6215959;23;20011;-77
2023/05/28 02:44:05;;;;;;;8.35;4.50;;;23.50;65.60;;;;;;6215914;23;20005;-76
2023/05/28 02:46:31;;;;;;;7.07;4.38;;;23.40;65.40;;;;;;6216611;23;20001;-76
2023/05/28 02:48:57;;;;;;;6.60;4.35;;;23.50;65.40;;;;;;6215289;23;20001;-77
2023/05/28 02:51:22;;;;;;;6.43;4.05;;;23.50;65.30;;;;;;6215382;23;19997;-76
2023/05/28 02:53:48;;;;;;;8.68;4.72;;;23.50;65.50;;;;;;6188384;23;20009;-76
2023/05/28 02:56:14;;;;;;;7.95;4.55;;;23.50;65.50;;;;;;6215015;23;20001;-76
2023/05/28 02:58:39;;;;;;;5.82;4.22;;;23.50;65.20;;;;;;6216100;23;20001;-76
2023/05/28 03:01:06;;;;;;;5.85;4.60;;;23.40;65.10;;;;;;6214859;23;20411;-76
2023/05/28 03:03:32;;;;;;;8.52;4.30;;;23.40;65.00;;;;;;6214800;23;20004;-76
2023/05/28 03:05:57;;;;;;;5.95;4.40;;;23.40;65.20;;;;;;6214716;23;20385;-76
2023/05/28 03:08:23;;;;;;;11.90;4.75;;;23.40;65.20;;;;;;6215916;23;20361;-76
2023/05/28 03:10:49;;;;;;;5.75;4.45;;;23.40;65.20;;;;;;6215957;23;20008;-76
2023/05/28 03:13:15;;;;;;;5.95;4.20;;;23.40;65.20;;;;;;6215733;23;20059;-76
2023/05/28 03:15:40;;;;;;;8.00;4.38;;;23.40;65.20;;;;;;6215212;23;20012;-76
2023/05/28 03:18:06;;;;;;;7.28;4.68;;;23.30;65.40;;;;;;6216102;23;20076;-76
2023/05/28 03:20:32;;;;;;;6.65;4.20;;;23.30;65.40;;;;;;6215356;23;20010;-76
2023/05/28 03:22:58;;;;;;;5.30;4.07;;;23.40;65.30;;;;;;6215750;23;20008;-76
2023/05/28 03:25:25;;;;;;;6.72;4.38;;;23.30;65.40;;;;;;6214560;23;20528;-75
2023/05/28 03:27:52;;;;;;;7.63;4.80;;;23.30;65.40;;;;;;6215482;23;19997;-76
2023/05/28 03:30:18;;;;;;;7.00;4.50;;;23.30;65.20;;;;;;6188701;23;20004;-76
2023/05/28 03:32:43;;;;;;;5.72;4.15;;;23.30;65.20;;;;;;6215439;23;20308;-76
2023/05/28 03:35:09;;;;;;;7.50;4.40;;;23.30;65.10;;;;;;6214545;23;20047;-76
2023/05/28 03:37:35;;;;;;;5.93;4.35;;;23.30;65.00;;;;;;6215682;23;20005;-76
2023/05/28 03:40:00;;;;;;;8.05;4.53;;;23.30;65.00;;;;;;6215584;23;20008;-76
2023/05/28 03:42:26;;;;;;;4.78;3.97;;;23.30;65.00;;;;;;6215261;23;20000;-77
2023/05/28 03:44:52;;;;;;;6.47;4.13;;;23.30;65.00;;;;;;6214831;23;20001;-77
2023/05/28 03:47:18;;;;;;;6.47;4.45;;;23.30;65.20;;;;;;6215789;23;19997;-77
2023/05/28 03:49:43;;;;;;;6.95;4.50;;;23.30;65.20;;;;;;6214790;23;20332;-77
2023/05/28 03:52:10;;;;;;;6.70;4.40;;;23.30;65.20;;;;;;6216089;23;20471;-76
2023/05/28 03:54:36;;;;;;;5.13;3.85;;;23.30;65.40;;;;;;6214662;23;20075;-76
2023/05/28 03:57:01;;;;;;;10.48;5.25;;;23.30;65.60;;;;;;6215809;23;20031;-76
2023/05/28 03:59:27;;;;;;;8.38;4.50;;;23.30;65.80;;;;;;6214853;23;19997;-76
2023/05/28 04:01:53;;;;;;;5.68;4.43;;;23.30;65.50;;;;;;6215765;23;20005;-76
2023/05/28 04:04:18;;;;;;;7.68;4.28;;;23.30;65.60;;;;;;6214203;23;20019;-75
2023/05/28 04:06:44;;;;;;;8.35;4.10;;;23.30;65.60;;;;;;6215427;23;20105;-75
2023/05/28 04:09:10;;;;;;;8.10;3.72;;;23.30;65.60;;;;;;6215074;23;20007;-75
2023/05/28 04:11:37;;;;;;;6.15;4.72;;;23.30;65.70;;;;;;6215203;23;20324;-76
2023/05/28 04:14:03;;;;;;;8.25;4.38;;;23.30;65.50;;;;;;6214300;23;20000;-75
2023/05/28 04:16:29;;;;;;;7.88;4.32;;;23.30;65.60;;;;;;6214289;23;20068;-75
2023/05/28 04:18:54;;;;;;;7.97;4.63;;;23.30;65.60;;;;;;6215479;23;20025;-76
2023/05/28 04:21:21;;;;;;;5.32;3.72;;;23.20;65.60;;;;;;6215102;23;20008;-76
2023/05/28 04:23:47;;;;;;;6.80;4.53;;;23.20;65.70;;;;;;6214036;23;20005;-76
2023/05/28 04:26:14;;;;;;;9.23;4.90;;;23.20;65.80;;;;;;6215042;23;20072;-76
2023/05/28 04:28:40;;;;;;;6.60;4.10;;;23.30;65.90;;;;;;6214800;23;20388;-76
2023/05/28 04:31:06;;;;;;;6.55;4.47;;;23.30;65.70;;;;;;6215150;23;20011;-76
2023/05/28 04:33:32;;;;;;;6.43;4.10;;;23.30;65.50;;;;;;6214582;23;20058;-76
2023/05/28 04:35:59;;;;;;;8.18;4.13;;;23.30;65.50;;;;;;6215209;23;20036;-76
2023/05/28 04:38:31;;;;;;;6.25;4.10;;;23.30;65.70;;;;;;6214662;23;20031;-76
2023/05/28 04:40:57;;;;;;;5.53;3.75;;;23.30;65.50;;;;;;6215325;23;20495;-77
2023/05/28 04:43:23;;;;;;;7.55;4.38;;;23.40;65.30;;;;;;6213395;23;20000;-77
2023/05/28 04:45:49;;;;;;;6.28;3.92;;;23.40;65.00;;;;;;6212831;23;20004;-76
2023/05/28 04:48:15;;;;;;;6.47;4.22;;;23.30;64.90;;;;;;6215299;23;20043;-76
2023/05/28 04:50:41;;;;;;;7.30;4.18;;;23.40;64.70;;;;;;6188245;23;20001;-77
2023/05/28 04:53:07;;;;;;;9.90;4.60;;;23.40;64.70;;;;;;6215318;23;20066;-77
2023/05/28 04:55:33;;;;;;;6.82;3.97;;;23.40;64.60;;;;;;6187480;23;20095;-77
2023/05/28 04:57:58;;;;;;;6.40;4.22;;;23.40;64.60;;;;;;6188067;23;20028;-77
2023/05/28 05:00:26;;;;;;;5.97;3.40;;;23.40;64.20;;;;;;6214801;23;20008;-77
2023/05/28 05:02:52;;;;;;;5.15;3.88;;;23.40;63.80;;;;;;6215107;23;20001;-77
2023/05/28 05:05:19;;;;;;;7.13;3.83;;;23.40;63.90;;;;;;6214157;23;20394;-77
2023/05/28 05:07:46;;;;;;;4.95;3.67;;;23.40;63.90;;;;;;6215287;23;20055;-77
2023/05/28 05:10:11;;;;;;;4.88;4.03;;;23.40;63.90;;;;;;6213836;23;20047;-77
2023/05/28 05:12:38;;;;;;;8.52;4.28;;;23.50;63.60;;;;;;6214085;23;20001;-77
2023/05/28 05:15:05;;;;;;;20.00;4.28;;;23.50;63.80;;;;;;6213456;23;20493;-77
2023/05/28 05:17:31;;;;;;;7.22;4.18;;;23.50;64.10;;;;;;6213140;23;20001;-77
2023/05/28 05:19:58;;;;;;;4.28;3.40;;;23.60;64.60;;;;;;6213914;23;20008;-77
2023/05/28 05:22:24;;;;;;;7.13;4.20;;;23.60;64.20;;;;;;6214831;23;20083;-77
2023/05/28 05:24:49;;;;;;;5.07;3.92;;;23.60;64.40;;;;;;6212798;23;20081;-77
2023/05/28 05:27:16;;;;;;;7.97;3.85;;;23.60;64.90;;;;;;6214996;23;20088;-77
2023/05/28 05:29:41;;;;;;;7.97;4.07;;;23.60;64.50;;;;;;6213477;23;20001;-77
2023/05/28 05:32:09;;;;;;;8.02;4.40;;;23.60;64.50;;;;;;6213378;23;20154;-77
2023/05/28 05:34:35;;;;;;;6.22;3.85;;;23.60;64.70;;;;;;6213204;23;20058;-78
2023/05/28 05:37:01;;;;;;;7.95;4.00;;;23.70;65.00;;;;;;6213432;23;20008;-79
2023/05/28 05:39:27;;;;;;;5.80;4.28;;;23.70;64.80;;;;;;6214642;23;20005;-79
2023/05/28 05:41:53;;;;;;;6.85;4.10;;;23.70;63.90;;;;;;6214446;23;20005;-78
2023/05/28 05:44:18;;;;;;;5.03;3.70;;;23.70;64.20;;;;;;6213503;23;20009;-78
2023/05/28 05:46:44;;;;;;;8.27;4.60;;;23.70;64.10;;;;;;6188129;23;20088;-78
2023/05/28 05:49:10;;;;;;;6.72;3.75;;;23.70;64.40;;;;;;6188051;23;20447;-78
2023/05/28 05:51:36;;;;;;;4.78;3.50;;;23.80;64.40;;;;;;6215402;23;19997;-79
2023/05/28 05:54:05;;;;;;;10.55;4.20;;;23.80;64.20;;;;;;6188140;23;20487;-78
2023/05/28 05:56:31;;;;;;;5.23;3.70;;;23.80;64.20;;;;;;6216080;23;20012;-79
2023/05/28 05:58:58;;;;;;;8.70;4.32;;;23.80;64.10;;;;;;6215337;23;20005;-79
2023/05/28 06:01:24;;;;;;;8.98;3.92;;;23.80;63.90;;;;;;6216460;23;20050;-79
2023/05/28 06:03:50;;;;;;;9.40;3.97;;;23.80;63.40;;;;;;6213421;23;20017;-79
2023/05/28 06:06:15;;;;;;;7.18;3.95;;;23.90;63.00;;;;;;6215395;23;20008;-78
2023/05/28 06:08:42;;;;;;;9.20;4.10;;;23.90;63.00;;;;;;6188092;23;20490;-78
2023/05/28 06:11:08;;;;;;;7.60;3.45;;;23.90;62.30;;;;;;6214748;23;20016;-77
2023/05/28 06:13:35;;;;;;;7.47;3.70;;;23.90;62.40;;;;;;6215174;23;20032;-77
2023/05/28 06:16:04;;;;;;;5.43;3.15;;;23.90;61.70;;;;;;6215759;23;20087;-77
2023/05/28 06:18:30;;;;;;;7.07;3.65;;;23.90;61.70;;;;;;6215803;23;20005;-78
2023/05/28 06:20:57;;;;;;;7.70;3.72;;;24.00;61.10;;;;;;6214051;23;20304;-77
2023/05/28 06:23:22;;;;;;;7.60;3.40;;;24.00;61.20;;;;;;6214932;23;20032;-77
2023/05/28 06:25:48;;;;;;;5.20;3.22;;;24.00;60.60;;;;;;6215305;23;19997;-77
2023/05/28 06:28:15;;;;;;;7.78;3.88;;;24.00;60.20;;;;;;6189765;23;19993;-81
2023/05/28 06:30:40;;;;;;;5.78;3.55;;;24.00;59.90;;;;;;6215379;23;20007;-78
2023/05/28 06:33:06;;;;;;;5.63;3.40;;;24.00;60.10;;;;;;6215018;23;20072;-80
2023/05/28 06:35:32;;;;;;;7.60;3.47;;;24.00;60.30;;;;;;6188174;23;20012;-77
2023/05/28 06:37:57;;;;;;;5.55;3.40;;;24.00;60.10;;;;;;6215747;23;20604;-76
2023/05/28 06:40:23;;;;;;;5.35;2.95;;;24.00;60.30;;;;;;6215496;23;20419;-75
2023/05/28 06:42:49;;;;;;;7.10;4.05;;;24.00;60.60;;;;;;6215428;23;20000;-75
2023/05/28 06:45:15;;;;;;;8.60;4.30;;;24.00;60.30;;;;;;6212883;23;20032;-75
2023/05/28 06:47:41;;;;;;;6.50;3.78;;;24.00;60.20;;;;;;6215489;23;20331;-76
2023/05/28 06:50:08;;;;;;;4.50;3.25;;;24.00;60.20;;;;;;6215165;23;20000;-75
2023/05/28 06:52:33;;;;;;;7.68;3.40;;;24.00;60.60;;;;;;6214091;23;20334;-76
2023/05/28 06:54:59;;;;;;;4.53;3.30;;;24.00;60.90;;;;;;6185805;23;20016;-78
2023/05/28 06:57:25;;;;;;;6.03;3.88;;;24.10;61.00;;;;;;6214002;23;20342;-78
2023/05/28 06:59:50;;;;;;;7.10;3.92;;;24.10;61.00;;;;;;6216093;23;20080;-78
2023/05/28 07:02:16;;;;;;;6.50;3.60;;;24.10;60.80;;;;;;6215669;23;20004;-80
2023/05/28 07:04:42;;;;;;;5.60;3.20;;;24.10;60.80;;;;;;6199800;23;20012;-79
2023/05/28 07:07:08;;;;;;;8.13;3.72;;;24.10;60.80;;;;;;6215987;23;20362;-79
2023/05/28 07:09:34;;;;;;;6.85;3.95;;;24.20;61.30;;;;;;6214687;23;20367;-79
2023/05/28 07:12:00;;;;;;;5.32;3.50;;;24.20;60.80;;;;;;6214653;23;20311;-79
2023/05/28 07:14:26;;;;;;;6.53;3.67;;;24.20;61.20;;;;;;6216732;23;20012;-79
2023/05/28 07:16:52;;;;;;;6.93;3.55;;;24.30;61.70;;;;;;6216118;23;20004;-79
2023/05/28 07:19:17;;;;;;;8.00;3.58;;;24.40;61.90;;;;;;6216750;23;20005;-79
2023/05/28 07:21:44;;;;;;;7.07;3.70;;;24.40;61.10;;;;;;6216881;23;20010;-79
2023/05/28 07:24:10;;;;;;;9.32;4.38;;;24.40;61.30;;;;;;6213155;23;20015;-79
2023/05/28 07:26:36;;;;;;;7.95;3.80;;;24.50;61.50;;;;;;6215147;23;19997;-79
2023/05/28 07:29:02;;;;;;;7.32;3.80;;;24.50;61.20;;;;;;6213782;23;20011;-79
2023/05/28 07:31:31;;;;;;;6.47;3.35;;;24.50;61.20;;;;;;6215421;23;19996;-79
2023/05/28 07:33:57;;;;;;;8.77;4.43;;;24.50;60.80;;;;;;6216716;23;20035;-79
2023/05/28 07:36:23;;;;;;;8.25;3.63;;;24.50;60.20;;;;;;6216141;23;20230;-79
2023/05/28 07:38:49;;;;;;;4.65;3.13;;;24.60;60.30;;;;;;6216626;23;20008;-79
2023/05/28 07:41:15;;;;;;;5.80;3.50;;;24.60;60.20;;;;;;6216815;23;20408;-79
2023/05/28 07:43:40;;;;;;;6.35;3.42;;;24.70;60.60;;;;;;6216583;23;20462;-77
2023/05/28 07:46:06;;;;;;;6.47;3.28;;;24.70;60.30;;;;;;6216243;23;20339;-77
2023/05/28 07:48:32;;;;;;;6.15;3.72;;;24.70;59.60;;;;;;6216262;23;19996;-77
2023/05/28 07:50:58;;;;;;;6.53;3.78;;;24.70;59.60;;;;;;6216370;23;19997;-77
2023/05/28 07:53:24;;;;;;;7.68;3.53;;;24.80;59.90;;;;;;6216171;23;20011;-77
2023/05/28 07:55:50;;;;;;;4.72;3.15;;;24.80;59.90;;;;;;6216277;23;20083;-77
2023/05/28 07:58:16;;;;;;;8.90;3.72;;;24.80;58.80;;;;;;6216080;23;20393;-76
2023/05/28 08:00:42;;;;;;;7.30;3.25;;;25.00;58.90;;;;;;6216078;23;20011;-77
2023/05/28 08:03:08;;;;;;;4.63;3.17;;;25.10;56.80;;;;;;6216066;23;20000;-76
2023/05/28 08:05:34;;;;;;;8.18;3.10;;;25.10;56.60;;;;;;6215722;23;20009;-76
2023/05/28 08:08:00;;;;;;;7.47;3.20;;;25.20;55.50;;;;;;6216007;23;20000;-76
2023/05/28 08:10:26;;;;;;;6.20;3.08;;;25.20;55.10;;;;;;6215938;23;20080;-77
2023/05/28 08:12:51;;;;;;;6.80;3.28;;;25.30;54.60;;;;;;6215749;23;20001;-77
2023/05/28 08:15:17;;;;;;;7.63;3.30;;;25.30;53.90;;;;;;6215766;23;20331;-78
2023/05/28 08:17:43;;;;;;;5.65;3.35;;;25.30;53.40;;;;;;6216027;23;20005;-79
2023/05/28 08:20:11;;;;;;;5.28;2.70;;;25.40;54.00;;;;;;6215861;23;20001;-79
2023/05/28 08:22:37;;;;;;;5.55;3.38;;;25.40;54.40;;;;;;6215509;23;20008;-79
2023/05/28 08:25:03;;;;;;;6.90;3.83;;;25.40;54.30;;;;;;6215859;23;19997;-79
2023/05/28 08:27:31;;;;;;;9.75;4.28;;;25.40;55.20;;;;;;6215952;23;20004;-79
2023/05/28 08:29:56;;;;;;;6.35;4.10;;;25.30;56.00;;;;;;6216108;23;20000;-79
2023/05/28 08:32:22;;;;;;;12.50;4.25;;;25.20;56.30;;;;;;6215933;23;20327;-79
2023/05/28 08:34:48;;;;;;;6.47;3.15;;;25.20;57.10;;;;;;6215624;23;20434;-79
2023/05/28 08:37:13;;;;;;;7.00;3.50;;;25.10;57.40;;;;;;6215522;23;20016;-79
2023/05/28 08:39:39;;;;;;;8.02;3.35;;;25.10;57.10;;;;;;6189232;23;20012;-79
2023/05/28 08:42:06;;;;;;;6.70;3.60;;;25.10;57.20;;;;;;6215975;23;20008;-79
2023/05/28 08:44:31;;;;;;;6.72;3.60;;;25.10;57.60;;;;;;6215757;23;20004;-79
2023/05/28 08:46:58;;;;;;;5.43;3.40;;;25.20;57.30;;;;;;6215350;23;20070;-79
2023/05/28 08:49:35;;;;;;;8.32;3.33;;;25.30;57.40;;;;;;6215834;23;20386;-79
2023/05/28 08:52:02;;;;;;;6.20;3.42;;;25.30;57.30;;;;;;6215678;23;19996;-79
2023/05/28 08:54:29;;;;;;;5.15;3.58;;;25.40;57.30;;;;;;6215881;23;20068;-79
2023/05/28 08:56:55;;;;;;;10.35;3.53;;;25.40;57.00;;;;;;6215879;23;20008;-79
2023/05/28 08:59:22;;;;;;;8.43;3.55;;;25.50;56.80;;;;;;6215584;23;20056;-79
2023/05/28 09:01:49;;;;;;;10.65;3.65;;;25.60;57.20;;;;;;6215555;23;20027;-79
2023/05/28 09:04:15;;;;;;;9.25;4.18;;;25.60;56.00;;;;;;6215321;23;20023;-79
2023/05/28 09:06:41;;;;;;;9.63;4.10;;;25.70;56.60;;;;;;6216002;23;19997;-78
2023/05/28 09:09:07;;;;;;;6.35;3.08;;;25.70;56.30;;;;;;6214786;23;20001;-79
2023/05/28 09:11:33;;;;;;;7.45;3.45;;;25.80;56.10;;;;;;6215047;23;20077;-79
2023/05/28 09:14:12;;;;;;;10.07;3.92;;;25.80;56.30;;;;;;6216191;23;20005;-79
2023/05/28 09:16:42;;;;;;;5.75;3.38;;;25.80;56.00;;;;;;6188970;23;20092;-78
2023/05/28 09:19:08;;;;;;;13.52;3.97;;;25.80;56.50;;;;;;6215701;23;20009;-79
2023/05/28 09:21:36;;;;;;;7.50;3.83;;;25.80;56.60;;;;;;6215528;23;20001;-79
2023/05/28 09:24:03;;;;;;;8.10;4.43;;;25.90;57.20;;;;;;6215379;23;20080;-79
2023/05/28 09:26:32;;;;;;;6.38;3.28;;;26.00;56.00;;;;;;6214877;23;20000;-79
2023/05/28 09:28:58;;;;;;;7.60;3.95;;;26.00;56.10;;;;;;6213196;23;20012;-79
2023/05/28 09:31:29;;;;;;;6.25;3.38;;;26.10;56.50;;;;;;6214100;23;20047;-81
2023/05/28 09:33:55;;;;;;;7.30;3.63;;;26.10;56.40;;;;;;6214925;23;20031;-79
2023/05/28 09:36:20;;;;;;;4.95;3.35;;;26.20;55.80;;;;;;6214754;23;20001;-77
2023/05/28 09:38:47;;;;;;;7.38;3.55;;;26.20;55.80;;;;;;6216828;23;20011;-77
2023/05/28 09:41:33;;;;;;;10.10;3.88;;;26.10;56.00;;;;;;6219690;23;20083;-79
2023/05/28 09:44:02;;;;;;;6.47;4.05;;;25.90;55.10;;;;;;6197944;23;20008;-77
2023/05/28 09:46:33;;;;;;;6.55;3.60;;;25.90;55.90;;;;;;6214370;23;19997;-77
2023/05/28 09:48:59;;;;;;;6.72;3.45;;;25.80;56.10;;;;;;6213533;23;20072;-77
2023/05/28 09:51:28;;;;;;;7.78;3.50;;;25.80;56.40;;;;;;6213579;23;20004;-76
2023/05/28 09:54:02;;;;;;;6.57;3.57;;;25.80;56.90;;;;;;6213724;23;20063;-76
2023/05/28 09:56:31;;;;;;;13.10;5.50;;;25.90;57.30;;;;;;6213844;23;20000;-76
2023/05/28 09:59:02;;;;;;;12.75;5.82;;;25.90;55.70;;;;;;6214587;23;20012;-76
2023/05/28 10:01:48;;;;;;;10.10;4.93;;;25.60;56.20;;;;;;6215558;23;20008;-76
2023/05/28 10:04:17;;;;;;;6.55;3.92;;;25.50;56.90;;;;;;6214860;23;20031;-77
2023/05/28 10:06:44;;;;;;;8.63;3.45;;;25.60;57.30;;;;;;6214524;23;19996;-78
2023/05/28 10:09:14;;;;;;;6.65;3.28;;;25.80;57.40;;;;;;6212115;23;20000;-76
2023/05/28 10:11:47;;;;;;;6.45;3.38;;;25.90;57.40;;;;;;6214874;23;20004;-77
2023/05/28 10:14:13;;;;;;;7.13;3.60;;;26.20;56.50;;;;;;6214416;23;20012;-77
2023/05/28 10:16:39;;;;;;;7.70;3.88;;;26.40;56.20;;;;;;6212230;23;20303;-77
2023/05/28 10:19:05;;;;;;;6.53;3.45;;;26.50;55.70;;;;;;6213607;23;20073;-76
2023/05/28 10:21:31;;;;;;;4.95;3.30;;;26.70;56.20;;;;;;6213705;23;20422;-81
2023/05/28 10:23:57;;;;;;;7.22;3.83;;;26.90;56.40;;;;;;6213178;23;20423;-80
2023/05/28 10:26:24;;;;;;;9.55;3.90;;;26.90;54.60;;;;;;6187299;23;20008;-79
2023/05/28 10:28:55;;;;;;;6.72;3.40;;;26.90;53.30;;;;;;6212328;23;20009;-80
2023/05/28 10:31:22;;;;;;;4.40;3.28;;;26.80;53.80;;;;;;6214006;23;20001;-76
2023/05/28 10:33:48;;;;;;;7.07;3.45;;;26.80;54.00;;;;;;6213218;23;20020;-76
2023/05/28 10:36:15;;;;;;;6.88;3.80;;;26.90;54.40;;;;;;6212513;23;20363;-84
2023/05/28 10:38:50;;;;;;;6.80;3.90;;;27.00;54.30;;;;;;6214265;23;20005;-81
2023/05/28 10:41:21;;;;;;;5.60;3.40;;;27.10;54.50;;;;;;6216654;23;20004;-80
2023/05/28 10:44:06;;;;;;;6.38;3.20;;;27.10;54.30;;;;;;6215400;23;20007;-81
2023/05/28 10:46:36;;;;;;;5.00;3.22;;;27.30;54.50;;;;;;6215734;23;19997;-79
2023/05/28 10:49:05;;;;;;;5.78;3.50;;;27.50;54.70;;;;;;6215061;23;20499;-79
2023/05/28 10:51:54;;;;;;;7.35;3.83;;;27.60;54.60;;;;;;6216369;23;20007;-79
2023/05/28 10:54:29;;;;;;;5.57;3.40;;;27.80;54.30;;;;;;6219422;23;20001;-79
2023/05/28 10:57:14;;;;;;;5.25;3.10;;;28.00;54.00;;;;;;6230336;23;20615;-80
2023/05/28 11:00:00;;;;;;;6.13;3.80;;;28.10;54.10;;;;;;6231364;23;20364;-80
2023/05/28 11:02:33;;;;;;;5.78;3.72;;;28.30;52.90;;;;;;6233680;23;20007;-78
2023/05/28 11:05:01;;;;;;;6.43;3.50;;;28.40;53.00;;;;;;6232528;23;20047;-78
2023/05/28 11:07:38;;;;;;;7.18;3.78;;;28.50;53.00;;;;;;6232819;23;20010;-78
2023/05/28 11:10:06;;;;;;;5.47;3.92;;;28.70;52.70;;;;;;6232415;23;20000;-79
2023/05/28 11:12:34;;;;;;;6.18;4.15;;;28.80;53.30;;;;;;6233785;23;20020;-80
2023/05/28 11:15:00;;;;;;;6.65;3.65;;;29.00;53.30;;;;;;6232877;23;20016;-78
2023/05/28 11:17:25;;;;;;;7.70;4.20;;;29.30;52.60;;;;;;6233723;23;20004;-79
2023/05/28 11:19:53;;;;;;;7.40;4.10;;;29.50;51.60;;;;;;6230778;23;20052;-79
2023/05/28 11:22:20;;;;;;;6.03;3.65;;;29.70;51.40;;;;;;6231333;23;20056;-78
2023/05/28 11:25:09;;;;;;;6.55;3.88;;;29.90;51.00;;;;;;6228235;23;20025;-80
2023/05/28 11:27:36;;;;;;;5.88;3.42;;;30.00;50.90;;;;;;6207851;23;20000;-79
2023/05/28 11:30:11;;;;;;;5.40;3.70;;;30.00;50.60;;;;;;6230042;23;20004;-81
2023/05/28 11:32:37;;;;;;;5.13;3.35;;;29.90;50.10;;;;;;6232080;23;20023;-80
2023/05/28 11:35:06;;;;;;;5.47;3.60;;;29.80;50.60;;;;;;6228525;23;20019;-79
2023/05/28 11:37:34;;;;;;;6.75;3.85;;;29.70;50.80;;;;;;6227961;23;20000;-80
2023/05/28 11:40:09;;;;;;;5.57;3.90;;;29.50;51.10;;;;;;6230819;23;20001;-80
2023/05/28 11:42:35;;;;;;;7.32;3.65;;;29.50;51.50;;;;;;6231105;23;20068;-78
2023/05/28 11:45:01;;;;;;;6.47;4.10;;;29.40;51.00;;;;;;6231370;23;19988;-81
2023/05/28 11:47:27;;;;;;;6.43;3.58;;;29.30;51.50;;;;;;6224022;23;20156;-79
2023/05/28 11:49:54;;;;;;;5.75;3.45;;;29.30;51.60;;;;;;6222975;23;20642;-80
2023/05/28 11:52:24;;;;;;;5.25;3.50;;;29.40;51.30;;;;;;6222505;23;20758;-80
2023/05/28 11:54:58;;;;;;;12.40;3.53;;;29.50;52.20;;;;;;6192765;23;20016;-79
2023/05/28 11:57:26;;;;;;;6.97;3.80;;;29.80;51.90;;;;;;6228048;23;20004;-80
2023/05/28 12:00:15;;;;;;;8.20;3.42;;;30.10;52.30;;;;;;6233210;23;20031;-79
2023/05/28 12:02:59;;;;;;;7.03;3.65;;;30.20;51.50;;;;;;6232207;23;20001;-80
2023/05/28 12:05:25;;;;;;;7.63;4.00;;;30.30;51.80;;;;;;6228408;23;20008;-80
2023/05/28 12:07:53;;;;;;;9.23;3.75;;;30.30;51.20;;;;;;6226700;23;20003;-79
2023/05/28 12:10:22;;;;;;;6.03;3.58;;;30.70;51.00;;;;;;6230635;23;19996;-81
2023/05/28 12:12:51;;;;;;;7.53;3.83;;;31.00;50.70;;;;;;6231676;23;20024;-80
2023/05/28 12:15:18;;;;;;;4.38;3.65;;;31.20;50.20;;;;;;6228665;23;20028;-80
2023/05/28 12:17:46;;;;;;;4.90;3.85;;;31.30;50.10;;;;;;6225124;23;20015;-81
2023/05/28 12:20:15;;;;;;;5.03;3.60;;;31.40;49.80;;;;;;6228406;23;20071;-81
2023/05/28 12:22:41;;;;;;;7.88;3.72;;;31.50;49.50;;;;;;6236784;23;20007;-81
2023/05/28 12:25:07;;;;;;;6.38;3.85;;;31.70;49.80;;;;;;6234149;22;20008;-81
2023/05/28 12:27:33;;;;;;;6.93;3.70;;;32.00;49.20;;;;;;6235386;23;19999;-81
2023/05/28 12:29:59;;;;;;;5.38;3.80;;;32.20;48.70;;;;;;6232467;22;19997;-80
2023/05/28 12:32:25;;;;;;;6.40;3.30;;;32.50;48.90;;;;;;6234973;22;19996;-80
2023/05/28 12:34:53;;;;;;;6.38;3.45;;;32.80;48.30;;;;;;6239136;23;19993;-82
2023/05/28 12:37:20;;;;;;;6.15;3.70;;;33.10;47.70;;;;;;6212603;23;19992;-82
2023/05/28 12:39:46;;;;;;;7.20;3.45;;;33.10;46.60;;;;;;6233762;23;20013;-80
2023/05/28 12:42:12;;;;;;;8.13;4.30;;;33.20;46.90;;;;;;6204308;23;20009;-81
2023/05/28 12:44:38;;;;;;;6.30;3.67;;;33.40;45.70;;;;;;6223141;23;20012;-81